createdAt,value
2017-08-30T00:01:27.112Z,11.60
2017-08-30T00:03:55.394Z,9.97
2017-08-30T00:06:23.675Z,9.53
2017-08-30T00:08:53.226Z,10.93
2017-08-30T00:11:21.886Z,12.47
2017-08-30T00:13:51.084Z,11.33
2017-08-30T00:16:19.699Z,11.80
2017-08-30T00:18:48.519Z,10.60
2017-08-30T00:21:17.058Z,11.70
2017-08-30T00:23:45.776Z,10.90
2017-08-30T00:26:26.574Z,11.47
2017-08-30T00:28:55.344Z,10.37
2017-08-30T00:31:24.571Z,8.90
2017-08-30T00:33:54.050Z,11.40
2017-08-30T00:36:23.345Z,10.97
2017-08-30T00:38:52.456Z,10.67
2017-08-30T00:41:21.182Z,11.97
2017-08-30T00:43:50.390Z,11.50
2017-08-30T00:46:19.167Z,10.57
2017-08-30T00:48:47.949Z,11.90
2017-08-30T00:51:16.559Z,12.07
2017-08-30T00:53:45.333Z,11.80
2017-08-30T00:56:14.156Z,10.37
2017-08-30T00:58:43.040Z,9.67
2017-08-30T01:01:12.272Z,13.23
2017-08-30T01:03:40.764Z,10.50
2017-08-30T01:06:09.401Z,12.53
2017-08-30T01:08:38.142Z,13.43
2017-08-30T01:11:06.836Z,13.00
2017-08-30T01:13:36.083Z,13.73
2017-08-30T01:16:05.280Z,14.53
2017-08-30T01:18:34.175Z,12.17
2017-08-30T01:21:03.060Z,10.80
2017-08-30T01:23:31.747Z,10.90
2017-08-30T01:26:00.565Z,12.50
2017-08-30T01:28:29.218Z,14.13
2017-08-30T01:30:58.008Z,11.00
2017-08-30T01:33:26.330Z,12.03
2017-08-30T01:35:55.349Z,10.47
2017-08-30T01:38:24.011Z,11.63
2017-08-30T01:40:52.431Z,11.67
2017-08-30T01:43:20.770Z,10.80
2017-08-30T01:45:49.493Z,13.30
2017-08-30T01:48:18.267Z,12.70
2017-08-30T01:50:47.291Z,11.90
2017-08-30T01:53:16.104Z,10.83
2017-08-30T01:55:44.496Z,13.80
2017-08-30T01:58:13.267Z,12.83
2017-08-30T02:00:41.573Z,13.20
2017-08-30T02:03:10.224Z,13.23
2017-08-30T02:05:39.401Z,13.70
2017-08-30T02:08:07.923Z,13.20
2017-08-30T02:10:36.464Z,14.00
2017-08-30T02:13:05.515Z,13.33
2017-08-30T02:15:34.331Z,12.67
2017-08-30T02:18:03.092Z,13.80
2017-08-30T02:20:31.690Z,13.57
2017-08-30T02:23:00.272Z,14.10
2017-08-30T02:25:29.737Z,14.33
2017-08-30T02:27:58.899Z,13.37
2017-08-30T02:30:28.035Z,12.53
2017-08-30T02:32:57.093Z,15.17
2017-08-30T02:35:26.774Z,13.70
2017-08-30T02:37:55.903Z,14.60
2017-08-30T02:40:24.155Z,12.60
2017-08-30T02:42:52.437Z,14.47
2017-08-30T02:45:20.693Z,14.27
2017-08-30T02:47:49.333Z,14.27
2017-08-30T02:50:18.260Z,12.80
2017-08-30T02:52:47.282Z,14.27
2017-08-30T02:55:15.987Z,13.87
2017-08-30T02:57:44.675Z,12.60
2017-08-30T03:00:13.034Z,13.30
2017-08-30T03:02:42.134Z,13.80
2017-08-30T03:05:10.409Z,13.83
2017-08-30T03:07:42.627Z,13.53
2017-08-30T03:10:11.520Z,12.33
2017-08-30T03:12:40.696Z,13.70
2017-08-30T03:15:09.055Z,13.90
2017-08-30T03:17:37.865Z,14.43
2017-08-30T03:20:06.650Z,13.43
2017-08-30T03:22:35.696Z,14.47
2017-08-30T03:25:04.578Z,14.23
2017-08-30T03:27:32.942Z,13.70
2017-08-30T03:30:01.639Z,14.63
2017-08-30T03:32:30.382Z,14.30
2017-08-30T03:34:59.673Z,13.93
2017-08-30T03:37:28.465Z,14.97
2017-08-30T03:39:57.283Z,13.77
2017-08-30T03:42:26.190Z,13.47
2017-08-30T03:44:55.573Z,14.23
2017-08-30T03:47:24.328Z,13.73
2017-08-30T03:49:53.259Z,13.67
2017-08-30T03:52:21.869Z,14.63
2017-08-30T03:54:50.632Z,15.03
2017-08-30T03:57:19.387Z,14.20
2017-08-30T03:59:48.101Z,13.90
2017-08-30T04:02:17.194Z,13.90
2017-08-30T04:04:45.796Z,14.10
2017-08-30T04:07:14.706Z,14.10
2017-08-30T04:09:43.771Z,12.63
2017-08-30T04:12:12.375Z,13.67
2017-08-30T04:14:41.058Z,14.37
2017-08-30T04:17:09.875Z,14.10
2017-08-30T04:19:38.859Z,14.50
2017-08-30T04:22:07.419Z,15.00
2017-08-30T04:24:36.841Z,13.50
2017-08-30T04:27:05.909Z,14.83
2017-08-30T04:29:34.900Z,13.37
2017-08-30T04:32:04.218Z,13.43
2017-08-30T04:34:32.993Z,13.80
2017-08-30T04:37:01.824Z,14.70
2017-08-30T04:39:30.481Z,14.30
2017-08-30T04:41:59.176Z,12.97
2017-08-30T04:44:28.154Z,14.23
2017-08-30T04:46:57.058Z,11.97
2017-08-30T04:49:25.834Z,14.50
2017-08-30T04:51:55.149Z,13.93
2017-08-30T04:54:23.743Z,14.30
2017-08-30T04:56:52.635Z,14.90
2017-08-30T04:59:21.923Z,13.73
2017-08-30T05:01:50.962Z,13.60
2017-08-30T05:04:19.675Z,13.90
2017-08-30T05:06:48.133Z,13.03
2017-08-30T05:09:16.970Z,14.63
2017-08-30T05:11:45.598Z,14.27
2017-08-30T05:14:13.848Z,14.90
2017-08-30T05:16:42.804Z,15.67
2017-08-30T05:19:12.978Z,15.23
2017-08-30T05:21:41.874Z,14.73
2017-08-30T05:24:10.699Z,15.40
2017-08-30T05:26:39.440Z,14.73
2017-08-30T05:29:08.262Z,15.40
2017-08-30T05:31:37.098Z,15.17
2017-08-30T05:34:06.871Z,15.20
2017-08-30T05:36:35.540Z,15.00
2017-08-30T05:39:05.765Z,15.03
2017-08-30T05:41:34.472Z,14.07
2017-08-30T05:44:03.116Z,14.10
2017-08-30T05:46:32.044Z,14.40
2017-08-30T05:49:01.024Z,14.27
2017-08-30T05:51:29.416Z,14.03
2017-08-30T05:53:57.870Z,13.87
2017-08-30T05:56:26.125Z,13.20
2017-08-30T05:58:54.435Z,14.47
2017-08-30T06:01:23.127Z,13.17
2017-08-30T06:03:51.977Z,12.60
2017-08-30T06:06:20.856Z,10.90
2017-08-30T06:08:49.837Z,10.83
2017-08-30T06:11:18.432Z,10.93
2017-08-30T06:13:47.109Z,12.30
2017-08-30T06:16:15.993Z,12.93
2017-08-30T06:18:45.237Z,11.40
2017-08-30T06:21:14.261Z,11.70
2017-08-30T06:23:42.885Z,12.17
2017-08-30T06:26:11.670Z,11.87
2017-08-30T06:28:40.458Z,11.57
2017-08-30T06:31:09.105Z,10.37
2017-08-30T06:33:37.777Z,11.00
2017-08-30T06:36:06.616Z,10.10
2017-08-30T06:38:35.023Z,10.60
2017-08-30T06:41:03.722Z,10.00
2017-08-30T06:43:32.364Z,11.33
2017-08-30T06:46:02.059Z,10.20
2017-08-30T06:48:31.571Z,9.20
2017-08-30T06:51:00.472Z,9.57
2017-08-30T06:53:28.961Z,10.07
2017-08-30T06:55:57.205Z,10.37
2017-08-30T06:58:25.712Z,9.70
2017-08-30T07:00:54.368Z,10.60
2017-08-30T07:03:23.287Z,10.07
2017-08-30T07:05:52.187Z,9.90
2017-08-30T07:08:20.629Z,10.83
2017-08-30T07:10:49.366Z,9.63
2017-08-30T07:13:18.326Z,10.00
2017-08-30T07:15:47.509Z,10.70
2017-08-30T07:18:16.310Z,9.33
2017-08-30T07:20:45.108Z,8.87
2017-08-30T07:23:13.866Z,8.70
2017-08-30T07:25:42.818Z,8.47
2017-08-30T07:28:11.416Z,10.37
2017-08-30T07:30:39.887Z,11.37
2017-08-30T07:33:08.447Z,11.97
2017-08-30T07:35:37.185Z,12.00
2017-08-30T07:38:05.840Z,11.80
2017-08-30T07:40:35.546Z,12.10
2017-08-30T07:43:05.206Z,12.00
2017-08-30T07:45:35.037Z,12.20
2017-08-30T07:48:06.468Z,11.63
2017-08-30T07:50:35.325Z,12.20
2017-08-30T07:53:04.118Z,11.90
2017-08-30T07:55:33.798Z,11.97
2017-08-30T07:58:02.581Z,11.17
2017-08-30T08:00:31.261Z,11.10
2017-08-30T08:03:00.853Z,11.20
2017-08-30T08:05:30.808Z,11.00
2017-08-30T08:07:59.605Z,12.20
2017-08-30T08:10:28.403Z,11.73
2017-08-30T08:12:56.878Z,11.67
2017-08-30T08:15:25.722Z,11.50
2017-08-30T08:17:54.653Z,12.10
2017-08-30T08:20:23.870Z,11.57
2017-08-30T08:22:52.532Z,10.90
2017-08-30T08:25:22.423Z,10.70
2017-08-30T08:27:51.565Z,10.50
2017-08-30T08:30:20.652Z,9.23
2017-08-30T08:32:49.612Z,8.70
2017-08-30T08:35:19.232Z,9.83
2017-08-30T08:37:48.049Z,8.67
2017-08-30T08:40:20.889Z,9.20
2017-08-30T08:42:49.384Z,9.40
2017-08-30T08:45:18.310Z,9.23
2017-08-30T08:47:47.011Z,8.80
2017-08-30T08:50:16.005Z,8.73
2017-08-30T08:52:44.860Z,8.50
2017-08-30T08:55:14.597Z,9.20
2017-08-30T08:57:43.366Z,9.33
2017-08-30T09:00:12.729Z,9.20
2017-08-30T09:02:41.562Z,8.80
2017-08-30T09:05:10.323Z,8.60
2017-08-30T09:07:39.016Z,9.07
2017-08-30T09:10:08.424Z,8.20
2017-08-30T09:12:37.113Z,8.67
2017-08-30T09:15:09.845Z,8.93
2017-08-30T09:17:38.574Z,8.50
2017-08-30T09:20:08.250Z,8.30
2017-08-30T09:22:37.193Z,8.37
2017-08-30T09:25:06.471Z,9.13
2017-08-30T09:27:35.222Z,9.40
2017-08-30T09:30:03.879Z,10.00
2017-08-30T09:32:32.527Z,9.70
2017-08-30T09:35:01.229Z,9.27
2017-08-30T09:37:30.122Z,9.13
2017-08-30T09:39:59.283Z,8.27
2017-08-30T09:42:27.947Z,8.57
2017-08-30T09:44:56.830Z,8.63
2017-08-30T09:47:25.753Z,8.23
2017-08-30T09:49:54.748Z,9.40
2017-08-30T09:52:23.666Z,9.50
2017-08-30T09:54:52.502Z,9.13
2017-08-30T09:57:21.301Z,9.40
2017-08-30T09:59:49.905Z,9.30
2017-08-30T10:02:18.679Z,8.50
2017-08-30T10:04:47.605Z,8.63
2017-08-30T10:07:16.433Z,7.97
2017-08-30T10:09:45.539Z,8.10
2017-08-30T10:12:14.413Z,7.67
2017-08-30T10:14:43.335Z,8.47
2017-08-30T10:17:12.161Z,8.20
2017-08-30T10:19:40.710Z,7.73
2017-08-30T10:22:09.593Z,7.40
2017-08-30T10:24:38.688Z,7.40
2017-08-30T10:27:07.518Z,7.80
2017-08-30T10:29:35.786Z,7.30
2017-08-30T10:32:04.764Z,6.87
2017-08-30T10:34:33.589Z,6.53
2017-08-30T10:37:02.165Z,6.83
2017-08-30T10:39:31.609Z,7.00
2017-08-30T10:42:00.845Z,6.30
2017-08-30T10:44:29.794Z,6.90
2017-08-30T10:46:58.646Z,6.03
2017-08-30T10:49:27.481Z,6.77
2017-08-30T10:51:56.355Z,6.30
2017-08-30T10:54:26.033Z,5.97
2017-08-30T10:56:54.720Z,5.97
2017-08-30T10:59:23.490Z,6.33
2017-08-30T11:01:52.452Z,6.50
2017-08-30T11:04:21.493Z,6.93
2017-08-30T11:06:50.194Z,6.53
2017-08-30T11:09:18.661Z,6.20
2017-08-30T11:11:47.441Z,6.73
2017-08-30T11:14:16.595Z,6.57
2017-08-30T11:16:45.281Z,6.30
2017-08-30T11:19:13.841Z,6.50
2017-08-30T11:21:42.753Z,6.43
2017-08-30T11:24:11.796Z,7.90
2017-08-30T11:26:40.603Z,7.00
2017-08-30T11:29:09.368Z,7.20
2017-08-30T11:31:38.521Z,7.10
2017-08-30T11:34:07.329Z,7.10
2017-08-30T11:36:36.260Z,7.03
2017-08-30T11:39:05.526Z,7.20
2017-08-30T11:41:34.406Z,7.23
2017-08-30T11:44:03.134Z,6.97
2017-08-30T11:46:31.977Z,6.80
2017-08-30T11:49:00.438Z,6.30
2017-08-30T11:51:29.426Z,6.70
2017-08-30T11:53:58.177Z,6.50
2017-08-30T11:56:27.038Z,6.07
2017-08-30T11:58:56.079Z,7.03
2017-08-30T12:01:24.947Z,7.37
2017-08-30T12:03:53.600Z,6.27
2017-08-30T12:06:22.589Z,6.40
2017-08-30T12:08:51.406Z,6.40
2017-08-30T12:11:20.006Z,6.50
2017-08-30T12:13:48.853Z,6.30
2017-08-30T12:16:17.404Z,6.50
2017-08-30T12:18:45.760Z,7.27
2017-08-30T12:21:14.567Z,6.70
2017-08-30T12:23:43.355Z,6.30
2017-08-30T12:26:12.162Z,6.90
2017-08-30T12:28:41.131Z,6.63
2017-08-30T12:31:09.901Z,6.50
2017-08-30T12:33:38.573Z,6.40
2017-08-30T12:36:07.897Z,6.67
2017-08-30T12:38:42.060Z,6.40
2017-08-30T12:41:10.609Z,7.17
2017-08-30T12:43:39.392Z,6.50
2017-08-30T12:46:08.179Z,6.73
2017-08-30T12:48:37.510Z,6.90
2017-08-30T12:51:06.652Z,6.70
2017-08-30T12:53:35.738Z,6.57
2017-08-30T12:56:04.187Z,6.47
2017-08-30T12:58:32.779Z,6.60
2017-08-30T13:01:01.801Z,6.83
2017-08-30T13:03:30.681Z,6.77
2017-08-30T13:06:00.157Z,7.10
2017-08-30T13:08:29.675Z,6.90
2017-08-30T13:10:58.655Z,6.33
2017-08-30T13:13:27.578Z,6.83
2017-08-30T13:15:56.262Z,7.40
2017-08-30T13:18:24.970Z,6.80
2017-08-30T13:20:53.801Z,7.20
2017-08-30T13:23:23.097Z,7.67
2017-08-30T13:25:51.874Z,7.33
2017-08-30T13:28:20.538Z,7.37
2017-08-30T13:30:49.483Z,7.40
2017-08-30T13:33:17.997Z,7.00
2017-08-30T13:35:46.635Z,7.03
2017-08-30T13:38:15.555Z,7.37
2017-08-30T13:40:44.753Z,7.00
2017-08-30T13:43:13.490Z,6.70
2017-08-30T13:45:42.455Z,6.83
2017-08-30T13:48:11.536Z,7.80
2017-08-30T13:50:40.474Z,7.50
2017-08-30T13:53:09.178Z,6.80
2017-08-30T13:55:37.808Z,7.00
2017-08-30T13:58:06.100Z,7.33
2017-08-30T14:00:34.824Z,7.00
2017-08-30T14:03:04.587Z,7.17
2017-08-30T14:05:32.886Z,6.50
2017-08-30T14:08:01.927Z,6.93
2017-08-30T14:10:30.878Z,7.00
2017-08-30T14:12:59.734Z,6.50
2017-08-30T14:15:28.867Z,6.50
2017-08-30T14:17:58.624Z,6.93
2017-08-30T14:20:27.470Z,6.70
2017-08-30T14:22:56.440Z,6.10
2017-08-30T14:25:25.131Z,6.43
2017-08-30T14:27:56.434Z,6.70
2017-08-30T14:30:25.867Z,6.70
2017-08-30T14:32:54.914Z,5.70
2017-08-30T14:35:24.590Z,6.70
2017-08-30T14:37:54.776Z,6.40
2017-08-30T14:40:24.740Z,6.40
2017-08-30T14:42:53.824Z,5.70
2017-08-30T14:45:22.448Z,6.23
2017-08-30T14:47:51.631Z,5.40
2017-08-30T14:50:20.302Z,5.87
2017-08-30T14:52:49.179Z,5.60
2017-08-30T14:55:18.045Z,5.83
2017-08-30T14:57:47.025Z,5.87
2017-08-30T15:00:16.074Z,6.00
2017-08-30T15:02:44.522Z,6.00
2017-08-30T15:05:13.364Z,5.73
2017-08-30T15:07:42.159Z,5.73
2017-08-30T15:10:11.248Z,5.30
2017-08-30T15:12:40.047Z,5.80
2017-08-30T15:15:09.114Z,5.80
2017-08-30T15:17:38.191Z,5.63
2017-08-30T15:20:07.231Z,5.43
2017-08-30T15:22:36.318Z,5.63
2017-08-30T15:25:04.891Z,6.43
2017-08-30T15:27:33.580Z,6.10
2017-08-30T15:30:03.493Z,6.47
2017-08-30T15:32:33.166Z,5.90
2017-08-30T15:35:02.942Z,5.50
2017-08-30T15:37:32.114Z,5.47
2017-08-30T15:40:00.711Z,5.43
2017-08-30T15:42:30.851Z,6.10
2017-08-30T15:44:59.679Z,5.47
2017-08-30T15:47:28.703Z,5.70
2017-08-30T15:49:57.572Z,5.07
2017-08-30T15:52:25.889Z,5.10
2017-08-30T15:54:54.283Z,5.80
2017-08-30T15:57:22.988Z,5.00
2017-08-30T15:59:51.828Z,5.33
2017-08-30T16:02:20.881Z,5.13
2017-08-30T16:04:49.791Z,5.33
2017-08-30T16:07:18.436Z,6.07
2017-08-30T16:09:47.797Z,5.70
2017-08-30T16:12:16.456Z,5.80
2017-08-30T16:14:44.865Z,5.37
2017-08-30T16:17:13.175Z,5.80
2017-08-30T16:19:41.421Z,6.23
2017-08-30T16:22:13.936Z,5.57
2017-08-30T16:24:42.393Z,5.60
2017-08-30T16:27:10.673Z,5.90
2017-08-30T16:29:39.101Z,5.97
2017-08-30T16:32:07.364Z,6.10
2017-08-30T16:34:36.550Z,5.70
2017-08-30T16:37:05.883Z,5.80
2017-08-30T16:39:34.172Z,5.17
2017-08-30T16:42:02.424Z,5.90
2017-08-30T16:44:30.697Z,5.73
2017-08-30T16:46:59.164Z,5.97
2017-08-30T16:49:27.452Z,6.30
2017-08-30T16:51:55.769Z,5.73
2017-08-30T16:54:24.040Z,6.67
2017-08-30T16:56:52.524Z,5.83
2017-08-30T16:59:20.809Z,6.07
2017-08-30T17:01:49.054Z,5.80
2017-08-30T17:04:17.304Z,5.97
2017-08-30T17:06:45.564Z,5.93
2017-08-30T17:09:13.809Z,6.10
2017-08-30T17:11:42.293Z,7.00
2017-08-30T17:14:10.718Z,5.30
2017-08-30T17:16:38.956Z,6.73
2017-08-30T17:19:07.192Z,5.93
2017-08-30T17:21:35.528Z,6.00
2017-08-30T17:24:03.874Z,5.57
2017-08-30T17:26:32.117Z,5.80
2017-08-30T17:29:00.624Z,5.80
2017-08-30T17:31:28.944Z,5.80
2017-08-30T17:33:57.446Z,6.00
2017-08-30T17:36:26.009Z,5.87
2017-08-30T17:38:54.382Z,5.30
2017-08-30T17:41:22.634Z,5.70
2017-08-30T17:43:50.957Z,5.80
2017-08-30T17:46:19.382Z,5.57
2017-08-30T17:48:47.641Z,5.53
2017-08-30T17:51:16.196Z,6.50
2017-08-30T17:53:44.639Z,5.80
2017-08-30T17:56:12.980Z,5.43
2017-08-30T17:58:41.418Z,6.60
2017-08-30T18:01:09.726Z,5.20
2017-08-30T18:03:38.015Z,5.83
2017-08-30T18:06:06.337Z,5.90
2017-08-30T18:08:34.808Z,5.60
2017-08-30T18:11:03.093Z,5.10
2017-08-30T18:13:31.551Z,5.20
2017-08-30T18:15:59.870Z,5.30
2017-08-30T18:18:28.221Z,5.20
2017-08-30T18:20:56.604Z,6.20
2017-08-30T18:23:24.909Z,6.10
2017-08-30T18:25:53.255Z,5.67
2017-08-30T18:28:21.895Z,6.43
2017-08-30T18:30:50.182Z,6.10
2017-08-30T18:33:18.661Z,6.23
2017-08-30T18:35:47.125Z,5.80
2017-08-30T18:38:15.385Z,6.30
2017-08-30T18:40:43.653Z,6.23
2017-08-30T18:43:11.914Z,6.33
2017-08-30T18:45:40.409Z,6.43
2017-08-30T18:48:08.643Z,6.33
2017-08-30T18:50:37.072Z,6.20
2017-08-30T18:53:05.309Z,6.83
2017-08-30T18:55:33.631Z,7.47
2017-08-30T18:58:02.068Z,6.77
2017-08-30T19:00:30.353Z,7.50
2017-08-30T19:02:58.682Z,7.00
2017-08-30T19:05:27.059Z,6.70
2017-08-30T19:07:55.301Z,6.90
2017-08-30T19:10:23.537Z,7.10
2017-08-30T19:12:51.808Z,6.43
2017-08-30T19:15:20.057Z,7.73
2017-08-30T19:17:48.302Z,6.67
2017-08-30T19:20:16.554Z,7.13
2017-08-30T19:22:44.805Z,7.97
2017-08-30T19:25:13.147Z,8.03
2017-08-30T19:27:41.389Z,6.90
2017-08-30T19:30:09.639Z,7.13
2017-08-30T19:32:38.133Z,6.63
2017-08-30T19:35:07.157Z,6.50
2017-08-30T19:37:35.397Z,6.40
2017-08-30T19:40:03.688Z,6.40
2017-08-30T19:42:31.948Z,6.57
2017-08-30T19:45:00.208Z,6.27
2017-08-30T19:47:28.457Z,6.17
2017-08-30T19:49:56.738Z,6.77
2017-08-30T19:52:25.170Z,6.57
2017-08-30T19:54:53.417Z,6.13
2017-08-30T19:57:21.676Z,6.10
2017-08-30T19:59:50.051Z,7.33
2017-08-30T20:02:18.314Z,7.77
2017-08-30T20:04:46.576Z,6.70
2017-08-30T20:07:15.062Z,6.20
2017-08-30T20:09:43.306Z,6.20
2017-08-30T20:12:11.593Z,6.10
2017-08-30T20:14:40.028Z,6.30
2017-08-30T20:17:08.289Z,6.33
2017-08-30T20:19:36.547Z,6.43
2017-08-30T20:22:04.784Z,5.80
2017-08-30T20:24:33.111Z,5.80
2017-08-30T20:27:01.538Z,5.93
2017-08-30T20:29:29.782Z,6.23
2017-08-30T20:31:58.037Z,5.70
2017-08-30T20:34:26.321Z,6.60
2017-08-30T20:36:54.780Z,6.10
2017-08-30T20:39:23.094Z,5.90
2017-08-30T20:41:51.392Z,5.67
2017-08-30T20:44:19.633Z,6.37
2017-08-30T20:46:47.878Z,5.77
2017-08-30T20:49:16.143Z,5.93
2017-08-30T20:51:44.400Z,6.20
2017-08-30T20:54:12.644Z,6.07
2017-08-30T20:56:40.956Z,5.90
2017-08-30T20:59:09.315Z,6.20
2017-08-30T21:01:37.565Z,5.90
2017-08-30T21:04:05.996Z,6.43
2017-08-30T21:06:34.263Z,6.03
2017-08-30T21:09:02.503Z,6.50
2017-08-30T21:11:30.773Z,5.97
2017-08-30T21:13:59.011Z,5.60
2017-08-30T21:16:27.272Z,5.93
2017-08-30T21:18:55.701Z,6.10
2017-08-30T21:21:23.940Z,6.80
2017-08-30T21:23:52.200Z,5.77
2017-08-30T21:26:20.825Z,6.23
2017-08-30T21:28:49.068Z,6.90
2017-08-30T21:31:17.340Z,6.20
2017-08-30T21:33:45.605Z,6.87
2017-08-30T21:36:13.843Z,6.33
2017-08-30T21:38:42.126Z,6.10
2017-08-30T21:41:10.400Z,6.63
2017-08-30T21:43:38.642Z,6.57
2017-08-30T21:46:06.939Z,6.10
2017-08-30T21:48:35.176Z,6.40
2017-08-30T21:51:03.425Z,5.90
2017-08-30T21:53:31.714Z,6.60
2017-08-30T21:55:59.968Z,6.27
2017-08-30T21:58:28.225Z,6.43
2017-08-30T22:00:56.506Z,7.20
2017-08-30T22:03:24.781Z,6.53
2017-08-30T22:05:53.760Z,7.30
2017-08-30T22:08:22.076Z,6.30
2017-08-30T22:10:50.324Z,6.57
2017-08-30T22:13:19.290Z,6.40
2017-08-30T22:15:48.176Z,6.47
2017-08-30T22:18:17.223Z,6.60
2017-08-30T22:20:45.641Z,6.83
2017-08-30T22:23:13.904Z,6.77
2017-08-30T22:25:42.577Z,6.80
2017-08-30T22:28:11.371Z,6.80
2017-08-30T22:30:40.712Z,6.40
2017-08-30T22:33:10.191Z,6.43
2017-08-30T22:35:39.101Z,7.07
2017-08-30T22:38:07.574Z,6.57
2017-08-30T22:40:35.801Z,7.37
2017-08-30T22:43:04.058Z,7.30
2017-08-30T22:45:32.821Z,7.30
2017-08-30T22:48:02.396Z,7.47
2017-08-30T22:50:31.218Z,7.90
2017-08-30T22:53:00.007Z,6.60
2017-08-30T22:55:28.851Z,6.70
2017-08-30T22:57:57.556Z,6.90
2017-08-30T23:00:25.993Z,6.90
2017-08-30T23:02:54.233Z,7.50
2017-08-30T23:05:22.494Z,6.70
2017-08-30T23:07:50.776Z,7.40
2017-08-30T23:10:19.894Z,7.97
2017-08-30T23:12:48.623Z,7.37
2017-08-30T23:15:17.294Z,6.87
2017-08-30T23:17:45.653Z,7.23
2017-08-30T23:20:13.907Z,7.60
2017-08-30T23:22:42.164Z,6.90
2017-08-30T23:25:10.413Z,7.20
2017-08-30T23:27:39.596Z,7.40
2017-08-30T23:30:08.079Z,6.90
2017-08-30T23:32:36.382Z,7.67
2017-08-30T23:35:04.901Z,7.10
2017-08-30T23:37:33.225Z,7.20
2017-08-30T23:40:01.852Z,6.93
2017-08-30T23:42:30.716Z,7.50
2017-08-30T23:45:00.383Z,7.33
2017-08-30T23:47:29.242Z,7.50
2017-08-30T23:49:57.757Z,7.87
2017-08-30T23:52:26.373Z,7.40
2017-08-30T23:54:55.470Z,7.63
2017-08-30T23:57:23.953Z,6.63
2017-08-30T23:59:52.754Z,7.50
